Time;durP1;ratioP1;P1;durP2;ratioP2;P2;SDS_P1;SDS_P2;PMS_P1;PMS_P2;Temp;Humidity;BMP_temperature;BMP_pressure;BME280_temperature;BME280_humidity;BME280_pressure;Samples;Min_cycle;Max_cycle;Signal;HPM_P1;HPM_P2
2021/07/09 00:02:10;;;;;;;24.33;15.45;;;16.40;99.90;;;;;;5127037;28;20048;-64
2021/07/09 00:04:37;;;;;;;23.98;16.15;;;16.30;99.90;;;;;;5126180;28;20043;-64
2021/07/09 00:07:03;;;;;;;27.85;19.08;;;16.30;99.90;;;;;;5127113;28;20064;-64
2021/07/09 00:09:29;;;;;;;32.42;20.52;;;16.30;99.90;;;;;;5120509;28;20566;-64
2021/07/09 00:11:56;;;;;;;33.05;22.00;;;16.30;99.90;;;;;;5126990;28;20044;-64
2021/07/09 00:14:27;;;;;;;31.88;21.63;;;16.30;99.90;;;;;;5126788;28;20047;-64
2021/07/09 00:16:53;;;;;;;27.75;19.83;;;16.30;99.90;;;;;;5126518;28;20058;-64
2021/07/09 00:19:19;;;;;;;26.05;17.27;;;16.30;99.90;;;;;;5126807;28;20047;-65
2021/07/09 00:21:46;;;;;;;25.88;16.60;;;16.30;99.90;;;;;;5126722;28;20043;-64
2021/07/09 00:24:12;;;;;;;24.63;16.95;;;16.20;99.90;;;;;;5126657;28;20081;-64
2021/07/09 00:26:39;;;;;;;23.40;16.40;;;16.10;99.90;;;;;;5121282;28;20069;-65
2021/07/09 00:29:05;;;;;;;20.27;15.73;;;16.00;99.90;;;;;;5126408;28;20074;-64
2021/07/09 00:31:32;;;;;;;27.50;17.85;;;16.10;99.90;;;;;;5126490;28;20067;-64
2021/07/09 00:34:01;;;;;;;27.23;18.02;;;16.10;99.90;;;;;;5126439;28;20096;-64
2021/07/09 00:36:27;;;;;;;26.92;17.08;;;16.10;99.90;;;;;;5126212;28;20043;-64
2021/07/09 00:38:53;;;;;;;24.80;17.00;;;16.10;99.90;;;;;;5125773;28;20062;-64
2021/07/09 00:41:20;;;;;;;25.92;15.90;;;16.10;99.90;;;;;;5126424;28;20465;-64
2021/07/09 00:43:46;;;;;;;22.25;16.40;;;16.10;99.90;;;;;;5125971;28;20070;-64
2021/07/09 00:46:13;;;;;;;24.83;16.13;;;16.20;99.90;;;;;;5126250;28;20047;-64
2021/07/09 00:48:39;;;;;;;20.23;14.82;;;16.30;99.90;;;;;;5112253;28;20047;-65
2021/07/09 00:51:07;;;;;;;20.85;13.93;;;16.40;99.90;;;;;;5126752;28;20047;-64
2021/07/09 00:53:33;;;;;;;21.30;14.23;;;16.30;99.90;;;;;;5125838;28;20069;-64
2021/07/09 00:55:59;;;;;;;26.65;18.58;;;16.40;99.90;;;;;;5126215;28;20051;-64
2021/07/09 00:58:26;;;;;;;27.50;17.92;;;16.40;99.90;;;;;;5125988;28;20044;-65
2021/07/09 01:00:52;;;;;;;29.17;19.02;;;16.30;99.90;;;;;;5126209;28;20039;-64
2021/07/09 01:03:18;;;;;;;30.48;19.92;;;16.30;99.90;;;;;;5125774;28;20040;-64
2021/07/09 01:05:44;;;;;;;30.17;19.70;;;16.20;99.90;;;;;;5126537;28;20044;-64
2021/07/09 01:08:12;;;;;;;29.27;18.88;;;16.10;99.90;;;;;;5125884;28;20048;-65
2021/07/09 01:10:39;;;;;;;34.47;19.48;;;16.10;99.90;;;;;;5124224;28;20040;-64
2021/07/09 01:13:06;;;;;;;33.10;20.42;;;16.00;99.90;;;;;;5126114;28;20044;-64
2021/07/09 01:15:32;;;;;;;33.55;20.92;;;16.00;99.90;;;;;;5126173;28;20051;-64
2021/07/09 01:17:58;;;;;;;38.28;22.83;;;16.00;99.90;;;;;;5125769;28;20111;-64
2021/07/09 01:20:24;;;;;;;40.83;23.58;;;15.90;99.90;;;;;;5125879;28;20050;-64
2021/07/09 01:22:51;;;;;;;40.28;22.98;;;15.90;99.90;;;;;;5125306;28;20055;-64
2021/07/09 01:25:23;;;;;;;39.83;22.52;;;15.80;99.90;;;;;;5125332;28;20040;-64
2021/07/09 01:27:52;;;;;;;39.00;23.35;;;15.90;99.90;;;;;;5125716;28;20062;-64
2021/07/09 01:30:21;;;;;;;43.30;23.30;;;15.90;99.90;;;;;;5125926;28;20051;-64
2021/07/09 01:32:48;;;;;;;38.00;21.60;;;15.90;99.90;;;;;;5125502;28;20046;-64
2021/07/09 01:35:15;;;;;;;40.97;23.55;;;15.90;99.90;;;;;;5125663;28;20046;-64
2021/07/09 01:37:41;;;;;;;30.88;20.67;;;16.00;99.90;;;;;;5125350;28;20058;-64
2021/07/09 01:40:10;;;;;;;36.55;22.08;;;16.00;99.90;;;;;;5125687;28;20179;-64
2021/07/09 01:42:37;;;;;;;34.97;21.67;;;16.00;99.90;;;;;;5125365;28;20043;-64
2021/07/09 01:45:04;;;;;;;33.88;21.45;;;16.10;99.90;;;;;;5125797;28;20054;-64
2021/07/09 01:47:30;;;;;;;33.90;21.55;;;16.20;99.90;;;;;;5125121;28;20040;-64
2021/07/09 01:49:59;;;;;;;36.70;21.17;;;16.20;99.90;;;;;;5125399;28;20103;-64
2021/07/09 01:52:29;;;;;;;32.42;20.50;;;16.20;99.90;;;;;;5120111;28;20040;-64
2021/07/09 01:54:55;;;;;;;36.45;21.65;;;16.20;99.90;;;;;;5125289;28;20058;-64
2021/07/09 01:57:21;;;;;;;34.30;21.77;;;16.20;99.90;;;;;;5125398;28;20047;-64
2021/07/09 01:59:48;;;;;;;38.85;22.58;;;16.20;99.90;;;;;;5125516;28;20546;-64
2021/07/09 02:02:14;;;;;;;38.03;22.80;;;16.10;99.90;;;;;;5123010;28;20130;-64
2021/07/09 02:04:56;;;;;;;35.83;22.05;;;16.10;99.90;;;;;;5113757;28;20040;-65
2021/07/09 02:07:24;;;;;;;36.47;20.85;;;16.10;99.90;;;;;;5114143;28;20108;-64
2021/07/09 02:09:52;;;;;;;37.13;22.02;;;16.10;99.90;;;;;;5118479;28;20040;-65
2021/07/09 02:12:20;;;;;;;33.17;20.38;;;16.10;99.90;;;;;;5148329;27;20047;-64
2021/07/09 02:14:48;;;;;;;31.52;18.80;;;16.10;99.90;;;;;;5132584;27;20040;-64
2021/07/09 02:17:16;;;;;;;30.88;18.63;;;16.10;99.90;;;;;;5131264;27;20131;-64
2021/07/09 02:19:43;;;;;;;30.58;18.48;;;16.10;99.90;;;;;;5149948;27;20051;-64
2021/07/09 02:22:13;;;;;;;23.50;16.48;;;16.10;99.90;;;;;;5143362;27;20043;-64
2021/07/09 02:24:41;;;;;;;27.00;17.55;;;16.10;99.90;;;;;;5128914;28;20114;-64
2021/07/09 02:27:07;;;;;;;28.88;17.42;;;16.10;99.90;;;;;;5128769;28;20068;-64
2021/07/09 02:29:34;;;;;;;27.35;18.42;;;16.10;99.90;;;;;;5129094;28;20056;-64
2021/07/09 02:32:02;;;;;;;30.40;19.17;;;16.00;99.90;;;;;;5127824;28;20088;-64
2021/07/09 02:34:29;;;;;;;27.45;18.73;;;16.00;99.90;;;;;;5128722;28;20044;-64
2021/07/09 02:36:56;;;;;;;28.90;18.73;;;16.00;99.90;;;;;;5128927;28;20043;-64
2021/07/09 02:39:24;;;;;;;27.52;17.63;;;15.90;99.90;;;;;;5128628;27;20055;-64
2021/07/09 02:41:53;;;;;;;29.23;18.92;;;15.90;99.90;;;;;;5128951;28;20043;-64
2021/07/09 02:44:20;;;;;;;26.10;17.77;;;15.90;99.90;;;;;;5128390;28;20047;-64
2021/07/09 02:46:46;;;;;;;26.63;17.42;;;15.80;99.90;;;;;;5128707;28;20061;-64
2021/07/09 02:49:12;;;;;;;30.48;19.95;;;15.80;99.90;;;;;;5128730;28;20051;-64
2021/07/09 02:51:39;;;;;;;35.78;21.20;;;15.80;99.90;;;;;;5128611;28;20065;-64
2021/07/09 02:54:06;;;;;;;32.78;19.98;;;15.80;99.90;;;;;;5110835;28;20067;-64
2021/07/09 02:56:31;;;;;;;34.20;20.30;;;15.80;99.90;;;;;;5123386;28;20048;-64
2021/07/09 02:58:58;;;;;;;33.28;21.30;;;15.80;99.90;;;;;;5132486;27;20043;-64
2021/07/09 03:01:25;;;;;;;39.55;22.85;;;15.70;99.90;;;;;;5113771;28;20107;-65
2021/07/09 03:03:52;;;;;;;38.78;22.65;;;15.70;99.90;;;;;;5119664;28;20071;-64
2021/07/09 03:06:17;;;;;;;35.33;21.90;;;15.60;99.90;;;;;;5117959;28;20047;-64
2021/07/09 03:08:44;;;;;;;34.97;21.98;;;15.60;99.90;;;;;;5111967;28;20040;-64
2021/07/09 03:11:09;;;;;;;34.10;20.88;;;15.60;99.90;;;;;;5119913;28;20067;-64
2021/07/09 03:13:37;;;;;;;34.15;20.15;;;15.60;99.90;;;;;;5127847;28;20051;-64
2021/07/09 03:16:03;;;;;;;37.40;20.73;;;15.70;99.90;;;;;;5127659;28;20104;-65
2021/07/09 03:18:29;;;;;;;38.08;22.30;;;15.70;99.90;;;;;;5128496;28;20095;-64
2021/07/09 03:20:56;;;;;;;38.88;23.83;;;15.70;99.90;;;;;;5128029;28;20047;-64
2021/07/09 03:23:23;;;;;;;38.08;23.38;;;15.80;99.90;;;;;;5126772;28;20126;-64
2021/07/09 03:25:49;;;;;;;38.22;24.13;;;15.80;99.90;;;;;;5127183;28;20062;-64
2021/07/09 03:28:16;;;;;;;37.58;23.98;;;15.90;99.90;;;;;;5126871;28;20047;-64
2021/07/09 03:30:42;;;;;;;38.05;23.88;;;15.90;99.90;;;;;;5128088;28;20043;-64
2021/07/09 03:33:09;;;;;;;34.25;24.15;;;15.90;99.90;;;;;;5127830;28;20098;-64
2021/07/09 03:35:36;;;;;;;37.50;23.40;;;15.90;99.90;;;;;;5126537;27;20046;-64
2021/07/09 03:38:02;;;;;;;34.10;20.77;;;15.90;99.90;;;;;;5127716;28;20043;-64
2021/07/09 03:40:28;;;;;;;33.83;22.08;;;15.90;99.90;;;;;;5112748;28;20043;-64
2021/07/09 03:42:54;;;;;;;31.77;21.70;;;15.90;99.90;;;;;;5127169;28;20051;-64
2021/07/09 03:45:20;;;;;;;30.55;21.05;;;16.00;99.90;;;;;;5127076;28;20088;-64
2021/07/09 03:47:47;;;;;;;31.55;20.55;;;16.00;99.90;;;;;;5114064;28;20043;-64
2021/07/09 03:50:14;;;;;;;32.85;22.65;;;16.00;99.90;;;;;;5127226;28;20519;-64
2021/07/09 03:52:40;;;;;;;32.30;21.95;;;16.00;99.90;;;;;;5127059;28;20099;-65
2021/07/09 03:55:10;;;;;;;26.70;19.23;;;16.00;99.90;;;;;;5127057;28;20095;-65
2021/07/09 03:57:35;;;;;;;31.17;20.33;;;16.00;99.90;;;;;;5127066;28;20118;-64
2021/07/09 04:00:08;;;;;;;27.88;19.95;;;16.00;99.90;;;;;;5117114;28;20594;-64
2021/07/09 04:02:34;;;;;;;29.52;19.90;;;16.00;99.90;;;;;;5126576;28;20070;-64
2021/07/09 04:05:00;;;;;;;29.77;20.05;;;16.10;99.90;;;;;;5123538;28;20040;-64
2021/07/09 04:07:25;;;;;;;27.88;18.50;;;16.10;99.90;;;;;;5126241;28;20048;-64
2021/07/09 04:09:51;;;;;;;30.25;20.73;;;16.10;99.90;;;;;;5112641;28;20091;-64
2021/07/09 04:12:17;;;;;;;31.73;20.08;;;16.00;99.90;;;;;;5116168;28;20047;-65
2021/07/09 04:14:43;;;;;;;29.88;20.17;;;15.90;99.90;;;;;;5122837;28;20048;-64
2021/07/09 04:17:09;;;;;;;33.25;20.10;;;15.90;99.90;;;;;;5121362;28;20119;-64
2021/07/09 04:19:34;;;;;;;37.35;21.27;;;15.80;99.90;;;;;;5125390;28;20041;-65
2021/07/09 04:22:01;;;;;;;37.67;23.45;;;15.80;99.90;;;;;;5124384;28;20059;-64
2021/07/09 04:24:27;;;;;;;35.97;21.88;;;15.80;99.90;;;;;;5120048;28;20040;-64
2021/07/09 04:26:53;;;;;;;33.78;22.17;;;15.80;99.90;;;;;;5138327;27;20040;-64
2021/07/09 04:29:19;;;;;;;37.13;20.75;;;15.80;99.90;;;;;;5119959;28;20040;-64
2021/07/09 04:31:44;;;;;;;34.60;21.60;;;15.80;99.90;;;;;;5118877;28;20506;-64
2021/07/09 04:34:10;;;;;;;33.42;21.55;;;15.80;99.90;;;;;;5123176;28;20071;-63
2021/07/09 04:36:37;;;;;;;33.25;21.10;;;15.80;99.90;;;;;;5112363;28;20078;-62
2021/07/09 04:39:03;;;;;;;35.90;21.95;;;15.80;99.90;;;;;;5110793;28;20051;-65
2021/07/09 04:41:29;;;;;;;31.88;20.77;;;15.90;99.90;;;;;;5124613;28;20096;-66
2021/07/09 04:43:55;;;;;;;34.97;22.10;;;15.90;99.90;;;;;;5124504;27;20126;-66
2021/07/09 04:46:21;;;;;;;31.65;20.73;;;15.90;99.90;;;;;;5122629;28;20540;-66
2021/07/09 04:48:47;;;;;;;36.28;21.42;;;16.00;99.90;;;;;;5098446;27;20150;-65
2021/07/09 04:51:13;;;;;;;35.47;21.98;;;16.00;99.90;;;;;;5095383;28;20048;-64
2021/07/09 04:53:39;;;;;;;39.03;23.10;;;15.90;99.90;;;;;;5107951;28;20044;-65
2021/07/09 04:56:05;;;;;;;36.58;23.55;;;16.00;99.90;;;;;;5104037;28;20089;-66
2021/07/09 04:58:31;;;;;;;34.25;23.88;;;15.90;99.90;;;;;;5112623;28;20100;-66
2021/07/09 05:00:56;;;;;;;32.63;20.35;;;15.90;99.90;;;;;;5106341;28;20051;-65
2021/07/09 05:03:24;;;;;;;37.20;24.02;;;15.90;99.90;;;;;;5112866;28;20070;-65
2021/07/09 05:05:50;;;;;;;34.00;22.30;;;15.90;99.90;;;;;;5105953;28;20040;-66
2021/07/09 05:08:15;;;;;;;31.55;22.25;;;15.90;99.90;;;;;;5109693;28;20046;-65
2021/07/09 05:10:41;;;;;;;38.42;23.35;;;15.90;99.90;;;;;;5112822;28;20047;-66
2021/07/09 05:13:08;;;;;;;33.10;20.75;;;15.90;99.90;;;;;;5127684;27;20078;-65
2021/07/09 05:15:34;;;;;;;38.63;22.17;;;15.90;99.90;;;;;;5119419;28;20077;-65
2021/07/09 05:18:00;;;;;;;34.28;21.02;;;15.80;99.90;;;;;;5096073;28;20087;-65
2021/07/09 05:20:26;;;;;;;36.63;22.05;;;15.80;99.90;;;;;;5117758;28;20036;-65
2021/07/09 05:22:53;;;;;;;34.78;21.77;;;15.90;99.90;;;;;;5102262;28;20054;-67
2021/07/09 05:25:19;;;;;;;36.63;21.48;;;15.90;99.90;;;;;;5116663;28;20551;-66
2021/07/09 05:27:45;;;;;;;38.42;22.55;;;16.00;99.90;;;;;;5120491;27;20051;-66
2021/07/09 05:30:12;;;;;;;33.55;20.83;;;16.10;99.90;;;;;;5116740;28;20044;-66
2021/07/09 05:32:41;;;;;;;34.88;21.80;;;16.10;99.90;;;;;;5121040;27;20079;-66
2021/07/09 05:35:07;;;;;;;36.92;22.45;;;16.20;99.90;;;;;;5116365;28;20611;-66
2021/07/09 05:37:33;;;;;;;30.90;20.38;;;16.20;99.90;;;;;;5119406;27;20419;-66
2021/07/09 05:39:59;;;;;;;34.25;19.58;;;16.20;99.90;;;;;;5092152;28;20112;-66
2021/07/09 05:42:25;;;;;;;29.00;19.08;;;16.30;99.90;;;;;;5108538;28;20056;-66
2021/07/09 05:44:51;;;;;;;28.77;19.42;;;16.40;99.90;;;;;;5115616;28;20048;-66
2021/07/09 05:47:17;;;;;;;28.98;19.40;;;16.40;99.90;;;;;;5108318;27;20094;-68
2021/07/09 05:49:43;;;;;;;29.30;19.08;;;16.50;99.90;;;;;;5115147;28;20100;-67
2021/07/09 05:52:10;;;;;;;30.42;19.48;;;16.50;99.90;;;;;;5095626;28;20637;-67
2021/07/09 05:54:36;;;;;;;32.15;20.00;;;16.50;99.90;;;;;;5120093;28;20097;-67
2021/07/09 05:57:02;;;;;;;24.25;17.33;;;16.50;99.90;;;;;;5112610;27;20144;-67
2021/07/09 05:59:28;;;;;;;29.63;19.08;;;16.60;99.90;;;;;;5122289;28;20104;-67
2021/07/09 06:01:55;;;;;;;34.83;21.23;;;16.60;99.90;;;;;;5118915;27;20356;-67
2021/07/09 06:04:21;;;;;;;31.45;20.95;;;16.60;99.90;;;;;;5118871;28;20437;-68
2021/07/09 06:06:47;;;;;;;28.65;19.55;;;16.60;99.90;;;;;;5108434;28;20078;-68
2021/07/09 06:09:13;;;;;;;30.15;19.88;;;16.60;99.90;;;;;;5102264;28;20121;-67
2021/07/09 06:11:39;;;;;;;31.27;21.27;;;16.60;99.90;;;;;;5111078;28;20055;-67
2021/07/09 06:14:04;;;;;;;29.33;20.15;;;16.60;99.90;;;;;;5130900;27;20040;-68
2021/07/09 06:16:31;;;;;;;32.45;21.60;;;16.60;99.90;;;;;;5116526;27;20059;-68
2021/07/09 06:18:58;;;;;;;31.52;20.63;;;16.60;99.90;;;;;;5133388;27;20092;-67
2021/07/09 06:21:25;;;;;;;29.58;19.83;;;16.70;99.90;;;;;;5113527;27;20063;-67
2021/07/09 06:23:52;;;;;;;30.40;19.05;;;16.70;99.90;;;;;;5105880;28;20070;-67
2021/07/09 06:26:18;;;;;;;28.52;19.15;;;16.70;99.90;;;;;;5108579;27;20061;-68
2021/07/09 06:28:44;;;;;;;29.27;20.17;;;16.70;99.90;;;;;;5134313;27;20046;-68
2021/07/09 06:31:10;;;;;;;28.50;18.95;;;16.70;99.90;;;;;;5109206;28;20035;-68
2021/07/09 06:33:37;;;;;;;29.60;20.13;;;16.80;99.90;;;;;;5117854;28;20831;-67
2021/07/09 06:36:03;;;;;;;32.17;20.88;;;16.90;99.90;;;;;;5111297;28;20278;-67
2021/07/09 06:38:29;;;;;;;31.90;21.55;;;17.00;99.90;;;;;;5111665;27;20059;-67
2021/07/09 06:40:55;;;;;;;30.92;20.73;;;17.00;99.90;;;;;;5108791;28;20495;-67
2021/07/09 06:43:20;;;;;;;32.85;21.55;;;17.00;99.90;;;;;;5125318;27;20043;-68
2021/07/09 06:45:46;;;;;;;27.77;19.95;;;17.10;99.90;;;;;;5119624;28;20131;-67
2021/07/09 06:48:12;;;;;;;26.35;19.95;;;17.10;99.90;;;;;;5124331;27;20047;-67
2021/07/09 06:50:38;;;;;;;25.38;18.52;;;17.20;99.90;;;;;;5117831;28;20040;-68
2021/07/09 06:53:04;;;;;;;26.45;18.98;;;17.30;99.90;;;;;;5109088;28;20075;-67
2021/07/09 06:55:31;;;;;;;28.73;20.25;;;17.40;99.90;;;;;;5119494;28;20031;-67
2021/07/09 06:57:57;;;;;;;28.23;20.02;;;17.40;99.90;;;;;;5109098;27;20048;-68
2021/07/09 07:00:23;;;;;;;30.35;21.73;;;17.50;99.90;;;;;;5119312;28;20926;-68
2021/07/09 07:02:49;;;;;;;27.60;19.67;;;17.60;99.90;;;;;;5122885;27;20051;-67
2021/07/09 07:05:16;;;;;;;24.92;18.08;;;17.70;99.90;;;;;;5120981;27;20042;-67
2021/07/09 07:07:42;;;;;;;25.38;19.48;;;17.80;99.90;;;;;;5121262;27;20311;-67
2021/07/09 07:10:10;;;;;;;22.23;18.02;;;17.90;99.90;;;;;;5122695;27;20061;-67
2021/07/09 07:12:36;;;;;;;24.90;18.33;;;18.00;99.90;;;;;;5110784;27;20282;-68
2021/07/09 07:15:07;;;;;;;22.65;16.38;;;18.10;99.90;;;;;;5109991;27;20135;-68
2021/07/09 07:17:33;;;;;;;23.73;17.45;;;18.10;99.90;;;;;;5127832;27;20055;-68
2021/07/09 07:20:00;;;;;;;23.70;17.02;;;18.10;99.90;;;;;;5118896;28;20042;-68
2021/07/09 07:22:25;;;;;;;17.55;13.77;;;18.10;99.90;;;;;;5108328;28;20146;-68
2021/07/09 07:24:52;;;;;;;18.55;14.65;;;18.10;99.90;;;;;;5119945;28;20039;-68
2021/07/09 07:27:21;;;;;;;20.05;14.60;;;18.00;99.90;;;;;;5127175;27;20073;-66
2021/07/09 07:29:47;;;;;;;19.25;13.30;;;18.00;99.90;;;;;;5125514;27;20035;-66
2021/07/09 07:32:13;;;;;;;18.25;13.63;;;17.90;99.90;;;;;;5116528;27;20054;-66
2021/07/09 07:34:40;;;;;;;18.30;14.02;;;17.90;99.90;;;;;;5113889;27;20036;-66
2021/07/09 07:37:07;;;;;;;19.25;13.60;;;17.80;99.90;;;;;;5115004;27;20119;-66
2021/07/09 07:39:34;;;;;;;17.08;13.07;;;17.80;99.90;;;;;;5093290;27;20060;-66
2021/07/09 07:41:59;;;;;;;16.17;12.20;;;17.80;99.90;;;;;;5096947;28;20054;-66
2021/07/09 07:44:27;;;;;;;17.60;12.20;;;17.80;99.90;;;;;;5106278;28;20043;-66
2021/07/09 07:46:54;;;;;;;18.70;12.65;;;17.90;99.90;;;;;;5109681;27;20079;-67
2021/07/09 07:49:24;;;;;;;15.63;12.77;;;17.90;99.90;;;;;;5114824;27;20131;-66
2021/07/09 07:51:50;;;;;;;14.13;11.48;;;18.00;99.90;;;;;;5102073;28;20082;-66
2021/07/09 07:54:17;;;;;;;15.30;11.98;;;17.90;99.90;;;;;;5122814;27;20271;-66
2021/07/09 07:56:43;;;;;;;14.73;12.07;;;17.90;99.90;;;;;;5096995;27;20053;-66
2021/07/09 07:59:09;;;;;;;15.45;11.52;;;17.90;99.90;;;;;;5131488;27;20174;-66
2021/07/09 08:01:35;;;;;;;15.75;10.55;;;17.90;99.90;;;;;;5111370;27;20222;-66
2021/07/09 08:04:04;;;;;;;15.30;11.48;;;18.10;99.90;;;;;;5110337;28;20051;-66
2021/07/09 08:06:31;;;;;;;13.82;11.38;;;18.20;99.90;;;;;;5093095;28;20043;-66
2021/07/09 08:08:57;;;;;;;14.50;11.30;;;18.20;99.90;;;;;;5108210;28;20044;-66
2021/07/09 08:11:23;;;;;;;12.57;10.30;;;18.10;99.90;;;;;;5110953;28;20032;-67
2021/07/09 08:13:49;;;;;;;16.95;11.80;;;18.20;99.90;;;;;;5135656;27;20063;-66
2021/07/09 08:16:15;;;;;;;15.00;11.05;;;18.30;99.90;;;;;;5118686;28;20047;-66
2021/07/09 08:18:44;;;;;;;13.95;10.95;;;18.30;99.90;;;;;;5122299;27;20048;-66
2021/07/09 08:21:10;;;;;;;13.55;11.18;;;18.30;99.90;;;;;;5110882;28;20040;-66
2021/07/09 08:23:37;;;;;;;12.77;9.48;;;18.30;99.90;;;;;;5125595;27;20038;-66
2021/07/09 08:26:03;;;;;;;12.77;10.32;;;18.50;99.90;;;;;;5109925;28;20042;-67
2021/07/09 08:28:29;;;;;;;9.98;8.63;;;18.60;99.90;;;;;;5120010;27;20130;-66
2021/07/09 08:30:58;;;;;;;11.40;9.18;;;18.80;99.90;;;;;;5130786;27;20040;-66
2021/07/09 08:33:24;;;;;;;13.48;10.55;;;19.00;99.90;;;;;;5105537;28;20066;-66
2021/07/09 08:35:50;;;;;;;11.63;9.10;;;19.00;99.90;;;;;;5113686;28;20040;-66
2021/07/09 08:38:16;;;;;;;10.40;8.20;;;19.00;99.90;;;;;;5082819;28;20048;-66
2021/07/09 08:40:43;;;;;;;12.15;8.68;;;19.20;99.90;;;;;;5112709;28;20039;-66
2021/07/09 08:43:09;;;;;;;10.88;9.65;;;19.40;99.90;;;;;;5119989;27;20047;-66
2021/07/09 08:45:34;;;;;;;11.20;8.90;;;19.40;99.90;;;;;;5119559;27;20062;-66
2021/07/09 08:48:01;;;;;;;12.18;9.90;;;19.30;99.90;;;;;;5095082;28;20110;-66
2021/07/09 08:50:27;;;;;;;14.65;10.02;;;19.40;99.90;;;;;;5106766;28;20048;-66
2021/07/09 08:52:53;;;;;;;12.60;9.30;;;19.30;99.90;;;;;;5096723;27;20102;-66
2021/07/09 08:55:21;;;;;;;12.13;9.93;;;19.40;99.90;;;;;;5115731;27;20040;-66
2021/07/09 08:57:49;;;;;;;8.35;7.55;;;19.20;99.90;;;;;;5113020;27;20054;-66
2021/07/09 09:00:26;;;;;;;9.88;7.85;;;19.20;99.90;;;;;;5105956;28;20044;-66
2021/07/09 09:02:54;;;;;;;11.05;8.70;;;19.20;99.90;;;;;;5108204;27;20051;-66
2021/07/09 09:05:25;;;;;;;9.82;7.32;;;19.10;99.90;;;;;;5108038;28;20080;-66
2021/07/09 09:07:58;;;;;;;9.68;7.93;;;19.10;99.90;;;;;;5115305;27;20241;-65
2021/07/09 09:10:47;;;;;;;8.82;7.43;;;19.00;99.90;;;;;;5115884;28;20040;-66
2021/07/09 09:13:19;;;;;;;11.02;7.68;;;19.10;99.90;;;;;;5087521;28;20322;-66
2021/07/09 09:16:13;;;;;;;9.02;7.95;;;19.20;99.90;;;;;;5115970;28;20066;-66
2021/07/09 09:18:44;;;;;;;9.90;8.10;;;19.30;99.90;;;;;;5113107;27;20062;-66
2021/07/09 09:21:11;;;;;;;9.88;8.63;;;19.60;99.90;;;;;;5109141;28;20073;-66
2021/07/09 09:23:58;;;;;;;10.60;8.50;;;19.60;99.90;;;;;;5122769;27;20239;-66
2021/07/09 09:26:42;;;;;;;10.25;7.50;;;19.60;99.90;;;;;;5116616;28;20548;-66
2021/07/09 09:29:13;;;;;;;8.35;7.25;;;19.60;99.90;;;;;;5104653;28;20064;-67
2021/07/09 09:31:40;;;;;;;8.57;7.60;;;19.60;99.90;;;;;;5117405;28;20051;-66
2021/07/09 09:34:06;;;;;;;9.05;7.30;;;19.60;99.90;;;;;;5105021;28;20074;-66
2021/07/09 09:36:34;;;;;;;8.13;7.18;;;19.70;99.90;;;;;;5118162;28;20108;-66
2021/07/09 09:39:02;;;;;;;9.40;8.00;;;19.70;99.90;;;;;;5110004;27;20047;-66
2021/07/09 09:41:29;;;;;;;7.97;7.00;;;19.70;99.90;;;;;;5117683;28;20157;-66
2021/07/09 09:44:15;;;;;;;10.73;8.00;;;19.80;99.90;;;;;;5107448;28;20271;-66
2021/07/09 09:46:43;;;;;;;7.30;6.53;;;19.90;99.90;;;;;;5116968;28;20050;-66
2021/07/09 09:49:16;;;;;;;7.90;6.68;;;19.90;99.90;;;;;;5104722;28;20152;-66
2021/07/09 09:51:41;;;;;;;8.40;6.85;;;19.90;99.90;;;;;;5117410;28;20078;-66
2021/07/09 09:54:09;;;;;;;9.15;6.75;;;19.90;99.90;;;;;;5101652;28;20503;-66
2021/07/09 09:56:41;;;;;;;6.82;5.55;;;19.90;99.90;;;;;;5116673;28;20039;-66
2021/07/09 09:59:33;;;;;;;7.43;6.57;;;20.00;99.90;;;;;;5092078;28;20048;-66
2021/07/09 10:02:07;;;;;;;8.00;7.20;;;20.10;99.90;;;;;;5102395;28;20060;-66
2021/07/09 10:04:34;;;;;;;9.38;6.65;;;20.00;99.90;;;;;;5104083;28;20569;-66
2021/07/09 10:07:01;;;;;;;7.05;6.20;;;20.10;99.90;;;;;;5102392;28;20580;-67
2021/07/09 10:09:28;;;;;;;7.10;6.40;;;20.10;99.90;;;;;;5123405;28;20102;-66
2021/07/09 10:11:55;;;;;;;6.07;5.43;;;20.10;99.90;;;;;;5107579;28;20054;-66
2021/07/09 10:14:26;;;;;;;7.15;6.13;;;20.10;99.90;;;;;;5104820;28;20048;-66
2021/07/09 10:16:58;;;;;;;8.02;6.20;;;20.10;99.90;;;;;;5104110;28;20630;-67
2021/07/09 10:19:40;;;;;;;7.53;6.30;;;20.10;99.90;;;;;;5132217;28;20051;-66
2021/07/09 10:22:07;;;;;;;7.32;6.43;;;20.20;99.90;;;;;;5107878;28;20682;-66
2021/07/09 10:24:35;;;;;;;8.18;6.93;;;20.20;99.90;;;;;;5109838;28;20052;-66
2021/07/09 10:27:02;;;;;;;7.03;5.53;;;20.30;99.90;;;;;;5124625;27;20384;-66
2021/07/09 10:29:34;;;;;;;8.60;7.47;;;20.30;99.90;;;;;;5134064;27;20390;-66
2021/07/09 10:32:04;;;;;;;6.07;5.47;;;20.30;99.90;;;;;;5105105;28;20075;-66
2021/07/09 10:34:48;;;;;;;6.80;5.65;;;20.30;99.90;;;;;;5106891;28;20058;-65
2021/07/09 10:37:20;;;;;;;7.03;5.93;;;20.30;99.90;;;;;;5103755;28;20071;-65
2021/07/09 10:39:49;;;;;;;8.20;6.53;;;20.30;99.90;;;;;;5100202;28;20107;-65
2021/07/09 10:42:18;;;;;;;8.45;5.90;;;20.40;99.90;;;;;;5108013;28;20036;-66
2021/07/09 10:45:10;;;;;;;7.00;6.28;;;20.50;99.90;;;;;;5118591;28;20035;-66
2021/07/09 10:47:44;;;;;;;8.15;5.78;;;20.60;99.90;;;;;;5107616;28;20055;-66
2021/07/09 10:50:16;;;;;;;6.20;5.60;;;20.50;99.90;;;;;;5119014;27;20085;-65
2021/07/09 10:52:42;;;;;;;5.75;5.15;;;20.70;99.90;;;;;;5115939;27;20187;-65
2021/07/09 10:55:27;;;;;;;6.28;5.47;;;20.80;99.90;;;;;;5129952;27;20051;-66
2021/07/09 10:58:07;;;;;;;7.00;5.90;;;21.10;99.90;;;;;;5111812;27;20546;-65
2021/07/09 11:01:05;;;;;;;8.68;5.57;;;21.10;99.90;;;;;;5124421;27;20039;-65
2021/07/09 11:03:39;;;;;;;6.80;5.72;;;21.30;99.90;;;;;;5097302;28;20051;-65
2021/07/09 11:06:09;;;;;;;6.70;5.97;;;21.30;99.90;;;;;;5118326;28;20384;-65
2021/07/09 11:08:40;;;;;;;6.43;5.70;;;21.40;99.90;;;;;;5121282;27;20162;-66
2021/07/09 11:11:11;;;;;;;6.53;5.93;;;21.60;99.90;;;;;;5120700;27;20043;-65
2021/07/09 11:13:41;;;;;;;6.47;5.10;;;21.70;99.90;;;;;;5105894;28;20076;-66
2021/07/09 11:16:30;;;;;;;6.78;5.60;;;21.80;99.90;;;;;;5114151;28;20085;-66
2021/07/09 11:19:07;;;;;;;7.03;5.55;;;21.70;99.90;;;;;;5104753;28;20059;-66
2021/07/09 11:21:36;;;;;;;5.97;5.38;;;21.70;99.90;;;;;;5116898;28;20039;-66
2021/07/09 11:24:09;;;;;;;6.82;5.10;;;21.80;99.90;;;;;;5107997;28;20063;-66
2021/07/09 11:26:40;;;;;;;6.35;5.47;;;22.00;99.90;;;;;;5109112;28;20535;-66
2021/07/09 11:29:33;;;;;;;6.07;5.47;;;22.20;99.90;;;;;;5102199;28;20054;-66
2021/07/09 11:32:16;;;;;;;5.78;5.00;;;22.30;99.90;;;;;;5111112;28;20050;-67
2021/07/09 11:34:56;;;;;;;5.88;5.20;;;22.30;99.90;;;;;;5104984;28;20047;-66
2021/07/09 11:37:30;;;;;;;6.90;5.43;;;22.10;99.90;;;;;;5110401;27;20135;-66
2021/07/09 11:40:06;;;;;;;5.85;5.15;;;22.00;99.90;;;;;;5082252;27;20053;-66
2021/07/09 11:42:33;;;;;;;7.65;6.35;;;22.00;99.90;;;;;;5070330;28;20054;-66
2021/07/09 11:45:01;;;;;;;6.47;5.80;;;22.10;99.90;;;;;;5070387;28;20059;-66
2021/07/09 11:47:35;;;;;;;8.85;5.93;;;22.10;99.90;;;;;;5068982;28;20060;-66
2021/07/09 11:50:07;;;;;;;7.70;5.68;;;21.90;99.90;;;;;;5077528;28;20048;-66
2021/07/09 11:52:38;;;;;;;6.32;5.55;;;21.80;99.90;;;;;;5070125;28;20051;-66
2021/07/09 11:55:07;;;;;;;6.65;5.97;;;21.70;99.90;;;;;;5088522;28;20063;-66
2021/07/09 11:57:37;;;;;;;7.20;5.25;;;21.80;99.90;;;;;;5070879;28;20056;-66
2021/07/09 12:00:14;;;;;;;7.45;5.97;;;21.80;99.90;;;;;;5089150;28;20098;-66
2021/07/09 12:02:43;;;;;;;6.97;5.05;;;21.90;99.90;;;;;;5072468;28;20115;-66
2021/07/09 12:05:15;;;;;;;6.20;5.40;;;21.80;99.90;;;;;;5083231;28;20139;-66
2021/07/09 12:07:42;;;;;;;6.40;5.63;;;21.80;99.90;;;;;;5085757;28;20044;-66
2021/07/09 12:10:14;;;;;;;8.77;5.40;;;21.90;99.90;;;;;;5075524;28;20056;-66
2021/07/09 12:12:48;;;;;;;6.22;4.70;;;22.00;99.90;;;;;;5061771;28;20056;-66
2021/07/09 12:15:18;;;;;;;6.90;5.03;;;22.20;99.90;;;;;;5076912;28;20040;-66
2021/07/09 12:17:47;;;;;;;6.15;4.80;;;22.60;99.90;;;;;;5071104;28;20052;-66
2021/07/09 12:20:17;;;;;;;6.55;5.70;;;22.90;99.90;;;;;;5088390;28;20097;-66
2021/07/09 12:23:06;;;;;;;6.22;5.57;;;22.90;99.90;;;;;;5073289;28;20056;-66
2021/07/09 12:25:36;;;;;;;6.30;5.20;;;22.90;99.90;;;;;;5083537;28;20060;-66
2021/07/09 12:28:08;;;;;;;5.63;4.88;;;22.90;99.90;;;;;;5069969;28;20052;-66
2021/07/09 12:30:38;;;;;;;7.22;5.30;;;22.90;99.90;;;;;;5084668;28;20083;-66
2021/07/09 12:33:06;;;;;;;7.47;5.15;;;22.80;99.90;;;;;;5071949;28;20071;-66
2021/07/09 12:35:34;;;;;;;6.25;5.22;;;22.80;99.90;;;;;;5085064;28;20060;-66
2021/07/09 12:38:09;;;;;;;6.13;5.25;;;22.80;99.90;;;;;;5071528;28;20080;-66
2021/07/09 12:40:43;;;;;;;5.55;4.95;;;22.80;99.90;;;;;;5094414;28;20055;-66